createdAt,value
2019-01-19T00:00:25.484Z,8.97
2019-01-19T00:03:30.174Z,8.70
2019-01-19T00:07:09.934Z,8.17
2019-01-19T00:10:38.876Z,7.27
2019-01-19T00:13:44.485Z,7.70
2019-01-19T00:16:57.872Z,8.70
2019-01-19T00:20:34.923Z,10.90
2019-01-19T00:23:43.284Z,9.40
2019-01-19T00:27:17.521Z,10.17
2019-01-19T00:30:28.788Z,9.40
2019-01-19T00:33:44.330Z,10.33
2019-01-19T00:37:16.563Z,8.10
2019-01-19T00:41:04.066Z,8.60
2019-01-19T00:44:00.159Z,10.57
2019-01-19T00:47:33.138Z,10.80
2019-01-19T00:50:51.261Z,6.53
2019-01-19T00:53:46.993Z,8.00
2019-01-19T00:56:36.188Z,6.95
2019-01-19T00:59:23.238Z,11.03
2019-01-19T01:02:43.342Z,8.13
2019-01-19T01:05:35.413Z,7.28
2019-01-19T01:08:50.615Z,8.00
2019-01-19T01:12:49.687Z,8.75
2019-01-19T01:16:04.170Z,8.83
2019-01-19T01:19:20.759Z,7.53
2019-01-19T01:22:49.337Z,10.93
2019-01-19T01:26:29.007Z,6.63
2019-01-19T01:29:54.977Z,6.10
2019-01-19T01:33:10.036Z,7.90
2019-01-19T01:36:57.073Z,10.60
2019-01-19T01:40:35.321Z,9.73
2019-01-19T01:43:50.333Z,7.62
2019-01-19T01:47:51.224Z,7.70
2019-01-19T01:50:38.673Z,8.30
2019-01-19T01:54:22.651Z,5.87
2019-01-19T01:56:55.490Z,8.50
2019-01-19T01:59:49.607Z,8.60
2019-01-19T02:03:26.753Z,9.90
2019-01-19T02:06:44.446Z,7.47
2019-01-19T02:10:37.569Z,6.60
2019-01-19T02:13:55.383Z,8.10
2019-01-19T02:17:45.530Z,12.20
2019-01-19T02:20:51.744Z,9.93
2019-01-19T02:24:08.471Z,6.83
2019-01-19T02:27:32.063Z,6.33
2019-01-19T02:31:06.002Z,7.25
2019-01-19T02:34:28.893Z,10.47
2019-01-19T02:37:35.178Z,11.00
2019-01-19T02:40:48.127Z,6.87
2019-01-19T02:44:17.076Z,9.58
2019-01-19T02:47:48.140Z,7.43
2019-01-19T02:50:56.481Z,8.00
2019-01-19T02:54:06.448Z,8.15
2019-01-19T02:57:11.699Z,11.07
2019-01-19T03:00:42.379Z,6.90
2019-01-19T03:03:30.011Z,10.43
2019-01-19T03:06:45.341Z,10.43
2019-01-19T03:09:59.541Z,10.10
2019-01-19T03:13:16.834Z,8.37
2019-01-19T03:17:01.228Z,10.20
2019-01-19T03:20:28.058Z,8.43
2019-01-19T03:23:49.097Z,6.87
2019-01-19T03:27:00.468Z,10.50
2019-01-19T03:30:17.649Z,8.43
2019-01-19T03:33:22.529Z,8.63
2019-01-19T03:36:31.912Z,9.00
2019-01-19T03:39:42.110Z,8.83
2019-01-19T03:42:47.207Z,9.45
2019-01-19T03:46:00.320Z,7.23
2019-01-19T03:49:40.546Z,12.07
2019-01-19T03:52:59.695Z,9.20
2019-01-19T03:56:24.432Z,7.83
2019-01-19T03:59:36.889Z,10.05
2019-01-19T04:02:49.879Z,9.37
2019-01-19T04:06:20.773Z,8.60
2019-01-19T04:09:59.304Z,7.73
2019-01-19T04:13:19.034Z,7.85
2019-01-19T04:17:01.688Z,9.10
2019-01-19T04:20:21.629Z,10.30
2019-01-19T04:22:59.861Z,9.00
2019-01-19T04:25:59.030Z,7.43
2019-01-19T04:28:30.948Z,6.87
2019-01-19T04:31:02.817Z,8.53
2019-01-19T04:33:34.594Z,9.43
2019-01-19T04:36:07.491Z,8.17
2019-01-19T04:38:41.101Z,7.80
2019-01-19T04:41:12.865Z,9.10
2019-01-19T04:43:44.646Z,8.18
2019-01-19T04:46:16.445Z,6.07
2019-01-19T04:48:48.689Z,9.90
2019-01-19T04:51:20.485Z,6.22
2019-01-19T04:53:52.205Z,8.53
2019-01-19T04:56:24.006Z,9.83
2019-01-19T04:58:55.785Z,7.87
2019-01-19T05:01:27.522Z,10.20
2019-01-19T05:03:59.555Z,7.20
2019-01-19T05:06:31.284Z,8.83
2019-01-19T05:09:02.998Z,9.17
2019-01-19T05:11:34.748Z,7.30
2019-01-19T05:14:06.827Z,7.10
2019-01-19T05:16:38.566Z,8.53
2019-01-19T05:19:10.525Z,7.17
2019-01-19T05:21:42.262Z,7.43
2019-01-19T05:24:13.958Z,7.75
2019-01-19T05:26:46.076Z,10.67
2019-01-19T05:29:17.995Z,5.47
2019-01-19T05:31:49.803Z,8.57
2019-01-19T05:34:21.597Z,7.75
2019-01-19T05:36:53.392Z,11.20
2019-01-19T05:39:25.112Z,8.98
2019-01-19T05:41:56.969Z,11.47
2019-01-19T05:44:28.690Z,8.43
2019-01-19T05:47:00.420Z,7.67
2019-01-19T05:49:32.139Z,8.13
2019-01-19T05:52:03.940Z,7.67
2019-01-19T05:54:35.635Z,7.70
2019-01-19T05:57:07.444Z,8.90
2019-01-19T05:59:39.398Z,8.90
2019-01-19T06:02:11.645Z,8.60
2019-01-19T06:04:43.790Z,7.47
2019-01-19T06:07:15.948Z,7.90
2019-01-19T06:09:47.767Z,8.80
2019-01-19T06:12:19.578Z,7.87
2019-01-19T06:14:51.437Z,8.83
2019-01-19T06:17:23.466Z,8.90
2019-01-19T06:19:55.613Z,10.93
2019-01-19T06:22:27.623Z,8.38
2019-01-19T06:24:59.392Z,9.77
2019-01-19T06:27:31.237Z,8.07
2019-01-19T06:30:03.289Z,9.23
2019-01-19T06:32:35.092Z,10.53
2019-01-19T06:35:08.411Z,9.03
2019-01-19T06:37:40.372Z,8.50
2019-01-19T06:40:13.713Z,8.67
2019-01-19T06:42:45.620Z,8.93
2019-01-19T06:45:23.696Z,8.13
2019-01-19T06:47:55.693Z,8.57
2019-01-19T06:50:27.502Z,7.45
2019-01-19T06:53:00.324Z,12.03
2019-01-19T06:55:34.806Z,10.63
2019-01-19T06:58:06.904Z,8.80
2019-01-19T07:00:38.754Z,10.27
2019-01-19T07:03:10.534Z,7.70
2019-01-19T07:05:42.358Z,9.70
2019-01-19T07:08:14.265Z,11.23
2019-01-19T07:10:46.115Z,8.57
2019-01-19T07:13:17.921Z,9.78
2019-01-19T07:15:49.631Z,13.00
2019-01-19T07:18:21.363Z,10.08
2019-01-19T07:20:53.353Z,9.17
2019-01-19T07:23:25.155Z,8.50
2019-01-19T07:25:56.950Z,10.00
2019-01-19T07:28:28.683Z,10.47
2019-01-19T07:31:00.396Z,14.13
2019-01-19T07:33:32.214Z,9.63
2019-01-19T07:36:04.187Z,10.03
2019-01-19T07:38:35.904Z,10.23
2019-01-19T07:41:07.766Z,8.07
2019-01-19T07:43:39.835Z,8.40
2019-01-19T07:46:12.497Z,10.33
2019-01-19T07:48:44.212Z,10.90
2019-01-19T07:51:15.928Z,15.70
2019-01-19T07:53:47.719Z,12.23
2019-01-19T07:56:19.728Z,9.55
2019-01-19T07:58:51.448Z,9.93
2019-01-19T08:01:23.249Z,10.85
2019-01-19T08:03:54.978Z,10.83
2019-01-19T08:06:26.773Z,10.60
2019-01-19T08:09:00.138Z,8.33
2019-01-19T08:11:31.854Z,8.07
2019-01-19T08:14:05.402Z,11.77
2019-01-19T08:16:37.668Z,10.77
2019-01-19T08:19:10.017Z,11.80
2019-01-19T08:21:41.876Z,13.13
2019-01-19T08:24:13.851Z,10.40
2019-01-19T08:26:45.558Z,10.43
2019-01-19T08:29:18.429Z,9.18
2019-01-19T08:31:50.345Z,9.23
2019-01-19T08:34:22.448Z,9.55
2019-01-19T08:36:54.438Z,9.93
2019-01-19T08:39:27.190Z,9.30
2019-01-19T08:41:59.188Z,8.07
2019-01-19T08:44:31.022Z,8.03
2019-01-19T08:47:02.736Z,8.33
2019-01-19T08:49:34.599Z,10.00
2019-01-19T08:52:06.453Z,9.10
2019-01-19T08:54:38.196Z,6.23
2019-01-19T08:57:10.142Z,6.50
2019-01-19T08:59:41.862Z,7.57
2019-01-19T09:02:13.582Z,9.25
2019-01-19T09:04:45.290Z,6.00
2019-01-19T09:07:17.146Z,5.15
2019-01-19T09:09:48.861Z,7.47
2019-01-19T09:12:20.716Z,8.30
2019-01-19T09:14:52.429Z,7.73
2019-01-19T09:17:24.134Z,8.08
2019-01-19T09:19:55.842Z,5.70
2019-01-19T09:22:27.552Z,6.25
2019-01-19T09:24:59.349Z,9.10
2019-01-19T09:27:31.150Z,5.20
2019-01-19T09:30:02.885Z,7.00
2019-01-19T09:32:34.732Z,5.33
2019-01-19T09:35:07.082Z,7.20
2019-01-19T09:37:40.893Z,5.57
2019-01-19T09:40:13.917Z,6.60
2019-01-19T09:42:46.059Z,5.73
2019-01-19T09:45:18.046Z,7.15
2019-01-19T09:47:49.896Z,7.37
2019-01-19T09:50:21.774Z,4.87
2019-01-19T09:52:53.582Z,9.90
2019-01-19T09:55:25.377Z,6.55
2019-01-19T09:57:57.220Z,6.87
2019-01-19T10:00:35.493Z,6.43
2019-01-19T10:03:02.920Z,9.23
2019-01-19T10:05:34.881Z,6.17
2019-01-19T10:08:06.726Z,5.93
2019-01-19T10:10:38.466Z,6.00
2019-01-19T10:13:10.164Z,7.53
2019-01-19T10:15:41.867Z,6.03
2019-01-19T10:18:13.738Z,6.57
2019-01-19T10:20:45.462Z,6.47
2019-01-19T10:23:17.410Z,7.00
2019-01-19T10:25:49.134Z,8.47
2019-01-19T10:28:20.918Z,7.15
2019-01-19T10:30:52.783Z,4.67
2019-01-19T10:33:24.545Z,6.83
2019-01-19T10:35:56.324Z,6.53
2019-01-19T10:38:28.090Z,5.70
2019-01-19T10:40:59.807Z,8.80
2019-01-19T10:43:31.507Z,6.23
2019-01-19T10:46:03.287Z,6.73
2019-01-19T10:48:35.060Z,8.25
2019-01-19T10:51:06.778Z,5.83
2019-01-19T10:53:38.499Z,5.43
2019-01-19T10:56:10.292Z,5.57
2019-01-19T10:58:42.310Z,4.77
2019-01-19T11:01:14.246Z,7.87
2019-01-19T11:03:46.032Z,6.57
2019-01-19T11:06:17.738Z,6.97
2019-01-19T11:08:49.578Z,5.80
2019-01-19T11:11:21.431Z,6.78
2019-01-19T11:13:53.123Z,4.40
2019-01-19T11:16:24.843Z,4.87
2019-01-19T11:18:56.536Z,5.70
2019-01-19T11:21:28.242Z,4.33
2019-01-19T11:23:59.930Z,4.97
2019-01-19T11:26:31.642Z,3.00
2019-01-19T11:29:03.332Z,7.13
2019-01-19T11:31:35.114Z,2.77
2019-01-19T11:34:06.977Z,4.07
2019-01-19T11:36:38.760Z,7.13
2019-01-19T11:39:10.537Z,4.50
2019-01-19T11:41:42.264Z,4.33
2019-01-19T11:44:14.030Z,6.22
2019-01-19T11:46:45.821Z,5.50
2019-01-19T11:49:17.516Z,5.40
2019-01-19T11:51:49.371Z,6.80
2019-01-19T11:54:21.154Z,6.80
2019-01-19T11:56:52.934Z,5.07
2019-01-19T11:59:24.636Z,4.87
2019-01-19T12:01:56.424Z,3.67
2019-01-19T12:04:28.124Z,4.43
2019-01-19T12:06:59.910Z,6.07
2019-01-19T12:09:31.612Z,7.17
2019-01-19T12:12:03.319Z,5.80
2019-01-19T12:14:35.009Z,5.53
2019-01-19T12:17:06.862Z,6.20
2019-01-19T12:19:38.614Z,3.07
2019-01-19T12:22:10.478Z,5.47
2019-01-19T12:24:42.497Z,4.73
2019-01-19T12:27:14.204Z,4.80
2019-01-19T12:29:45.909Z,5.80
2019-01-19T12:32:18.239Z,4.05
2019-01-19T12:34:49.991Z,5.07
2019-01-19T12:37:21.844Z,6.37
2019-01-19T12:39:53.862Z,5.13
2019-01-19T12:42:25.561Z,5.60
2019-01-19T12:44:57.249Z,5.47
2019-01-19T12:47:29.057Z,5.07
2019-01-19T12:50:02.017Z,3.83
2019-01-19T12:52:33.962Z,4.62
2019-01-19T12:55:06.529Z,4.70
2019-01-19T12:57:38.415Z,4.33
2019-01-19T13:00:14.632Z,9.43
2019-01-19T13:02:46.491Z,6.57
2019-01-19T13:05:34.783Z,5.67
2019-01-19T13:08:08.538Z,8.48
2019-01-19T13:10:49.556Z,7.53
2019-01-19T13:13:28.043Z,9.03
2019-01-19T13:17:09.537Z,6.47
2019-01-19T13:20:06.471Z,8.13
2019-01-19T13:23:53.336Z,8.10
2019-01-19T13:27:09.774Z,6.62
2019-01-19T13:30:32.137Z,8.07
2019-01-19T13:33:36.704Z,7.20
2019-01-19T13:36:58.986Z,8.35
2019-01-19T13:40:17.139Z,8.60
2019-01-19T13:43:56.043Z,7.30
2019-01-19T13:47:19.146Z,7.13
2019-01-19T13:50:39.215Z,9.07
2019-01-19T13:54:38.483Z,7.45
2019-01-19T13:58:09.644Z,8.30
2019-01-19T14:01:37.523Z,8.57
2019-01-19T14:05:16.109Z,9.95
2019-01-19T14:09:04.265Z,7.40
2019-01-19T14:12:36.049Z,10.40
2019-01-19T14:15:41.446Z,8.10
2019-01-19T14:19:02.124Z,9.23
2019-01-19T14:22:03.238Z,13.07
2019-01-19T14:25:10.545Z,9.33
2019-01-19T14:28:21.199Z,10.10
2019-01-19T14:32:02.704Z,9.33
2019-01-19T14:35:18.503Z,9.43
2019-01-19T14:38:40.357Z,11.23
2019-01-19T14:42:05.100Z,12.13
2019-01-19T14:45:45.574Z,9.53
2019-01-19T14:49:08.381Z,8.85
2019-01-19T14:52:44.654Z,9.53
2019-01-19T14:55:58.838Z,9.60
2019-01-19T14:58:59.568Z,10.40
2019-01-19T15:02:44.033Z,11.77
2019-01-19T15:06:20.224Z,12.10
2019-01-19T15:10:02.867Z,10.47
2019-01-19T15:13:10.780Z,9.70
2019-01-19T15:16:30.331Z,9.47
2019-01-19T15:19:46.726Z,8.67
2019-01-19T15:23:47.197Z,10.80
2019-01-19T15:27:22.416Z,9.43
2019-01-19T15:30:55.076Z,9.43
2019-01-19T15:34:27.566Z,10.88
2019-01-19T15:37:25.340Z,10.40
2019-01-19T15:40:56.161Z,9.77
2019-01-19T15:44:27.628Z,8.77
2019-01-19T15:48:04.380Z,9.20
2019-01-19T15:51:36.856Z,10.57
2019-01-19T15:55:24.995Z,10.07
2019-01-19T15:58:48.797Z,17.43
2019-01-19T16:02:15.573Z,15.28
2019-01-19T16:05:50.484Z,13.53
2019-01-19T16:08:57.145Z,16.53
2019-01-19T16:12:23.390Z,16.67
2019-01-19T16:15:23.805Z,13.43
2019-01-19T16:18:50.189Z,16.23
2019-01-19T16:22:28.362Z,20.15
2019-01-19T16:25:53.754Z,18.33
2019-01-19T16:29:28.334Z,18.62
2019-01-19T16:32:53.974Z,21.20
2019-01-19T16:36:10.512Z,22.60
2019-01-19T16:39:32.230Z,18.00
2019-01-19T16:42:42.480Z,18.07
2019-01-19T16:46:25.151Z,17.90
2019-01-19T16:49:31.561Z,19.57
2019-01-19T16:52:26.354Z,14.93
2019-01-19T16:55:44.518Z,18.33
2019-01-19T16:59:04.294Z,19.70
2019-01-19T17:02:28.690Z,14.83
2019-01-19T17:05:39.348Z,17.83
2019-01-19T17:08:55.835Z,18.50
2019-01-19T17:12:15.703Z,16.42
2019-01-19T17:15:28.888Z,16.33
2019-01-19T17:18:55.608Z,20.12
2019-01-19T17:22:18.494Z,22.93
2019-01-19T17:26:02.641Z,22.40
2019-01-19T17:29:16.777Z,19.40
2019-01-19T17:32:22.632Z,16.87
2019-01-19T17:35:56.451Z,15.67
2019-01-19T17:39:06.619Z,17.37
2019-01-19T17:42:28.258Z,18.00
2019-01-19T17:46:15.742Z,16.33
2019-01-19T17:49:58.889Z,16.97
2019-01-19T17:53:16.887Z,15.43
2019-01-19T17:56:39.306Z,14.87
2019-01-19T17:59:57.758Z,21.23
2019-01-19T18:03:05.252Z,17.97
2019-01-19T18:06:26.385Z,19.07
2019-01-19T18:10:08.049Z,17.80
2019-01-19T18:13:26.337Z,15.70
2019-01-19T18:16:37.341Z,19.43
2019-01-19T18:19:55.017Z,21.57
2019-01-19T18:23:31.558Z,14.67
2019-01-19T18:26:42.891Z,18.23
2019-01-19T18:30:09.999Z,20.48
2019-01-19T18:33:06.321Z,23.00
2019-01-19T18:36:47.565Z,22.57
2019-01-19T18:40:43.529Z,23.12
2019-01-19T18:44:19.435Z,18.12
2019-01-19T18:47:32.560Z,19.27
2019-01-19T18:51:15.500Z,18.20
2019-01-19T18:54:36.950Z,18.07
2019-01-19T18:58:23.791Z,16.20
2019-01-19T19:01:35.413Z,17.90
2019-01-19T19:04:52.787Z,17.57
2019-01-19T19:08:20.623Z,15.97
2019-01-19T19:11:47.988Z,18.93
2019-01-19T19:15:16.663Z,18.10
2019-01-19T19:18:31.866Z,19.87
2019-01-19T19:21:26.069Z,18.93
2019-01-19T19:24:55.386Z,16.93
2019-01-19T19:28:12.607Z,20.82
2019-01-19T19:31:13.590Z,23.30
2019-01-19T19:34:16.841Z,16.37
2019-01-19T19:37:25.635Z,19.65
2019-01-19T19:40:46.358Z,20.73
2019-01-19T19:43:28.323Z,18.17
2019-01-19T19:46:51.351Z,25.10
2019-01-19T19:50:07.787Z,20.08
2019-01-19T19:52:41.555Z,19.50
2019-01-19T19:55:11.330Z,21.57
2019-01-19T19:57:44.979Z,17.07
2019-01-19T20:00:17.024Z,20.43
2019-01-19T20:02:49.441Z,23.65
2019-01-19T20:05:22.232Z,21.07
2019-01-19T20:07:54.453Z,22.57
2019-01-19T20:10:26.310Z,24.90
2019-01-19T20:12:58.042Z,21.53
2019-01-19T20:15:30.177Z,23.53
2019-01-19T20:18:04.860Z,24.23
2019-01-19T20:20:36.612Z,26.70
2019-01-19T20:23:08.326Z,22.90
2019-01-19T20:25:40.082Z,21.87
2019-01-19T20:28:12.148Z,22.00
2019-01-19T20:30:44.136Z,29.73
2019-01-19T20:33:16.176Z,28.55
2019-01-19T20:35:47.998Z,32.77
2019-01-19T20:38:19.880Z,31.23
2019-01-19T20:40:51.933Z,27.03
2019-01-19T20:43:23.912Z,26.25
2019-01-19T20:45:55.748Z,23.60
2019-01-19T20:48:27.553Z,26.05
2019-01-19T20:50:59.602Z,23.83
2019-01-19T20:53:31.402Z,24.83
2019-01-19T20:56:03.280Z,26.20
2019-01-19T20:58:35.006Z,26.40
2019-01-19T21:01:06.902Z,25.97
2019-01-19T21:03:38.716Z,22.27
2019-01-19T21:06:10.916Z,26.00
2019-01-19T21:08:42.639Z,23.53
2019-01-19T21:11:14.398Z,26.05
2019-01-19T21:13:46.201Z,25.03
2019-01-19T21:16:17.942Z,23.63
2019-01-19T21:18:49.664Z,26.13
2019-01-19T21:21:21.470Z,27.67
2019-01-19T21:23:53.192Z,26.87
2019-01-19T21:26:24.931Z,22.00
2019-01-19T21:28:56.764Z,26.30
2019-01-19T21:31:28.603Z,25.43
2019-01-19T21:34:00.409Z,26.70
2019-01-19T21:36:32.159Z,25.13
2019-01-19T21:39:05.940Z,29.07
2019-01-19T21:41:37.754Z,28.43
2019-01-19T21:44:10.155Z,26.87
2019-01-19T21:46:41.892Z,24.80
2019-01-19T21:49:13.618Z,26.20
2019-01-19T21:51:45.351Z,26.20
2019-01-19T21:54:17.148Z,26.97
2019-01-19T21:56:49.121Z,23.57
2019-01-19T21:59:20.842Z,25.77
2019-01-19T22:01:52.730Z,26.42
2019-01-19T22:04:24.458Z,24.10
2019-01-19T22:06:56.596Z,26.20
2019-01-19T22:09:28.322Z,26.37
2019-01-19T22:12:00.056Z,28.50
2019-01-19T22:14:32.031Z,22.77
2019-01-19T22:17:03.764Z,27.23
2019-01-19T22:19:35.487Z,27.20
2019-01-19T22:22:07.371Z,24.63
2019-01-19T22:24:39.112Z,25.10
2019-01-19T22:27:12.512Z,24.53
2019-01-19T22:29:44.311Z,24.80
2019-01-19T22:32:16.047Z,24.25
2019-01-19T22:34:47.764Z,20.53
2019-01-19T22:37:20.465Z,23.90
2019-01-19T22:39:52.351Z,21.33
2019-01-19T22:42:24.084Z,21.47
2019-01-19T22:44:55.803Z,26.97
2019-01-19T22:47:27.541Z,25.92
2019-01-19T22:49:59.275Z,24.63
2019-01-19T22:52:31.035Z,25.63
2019-01-19T22:55:02.756Z,26.27
2019-01-19T22:57:34.818Z,29.77
2019-01-19T23:00:24.531Z,27.93
2019-01-19T23:02:57.954Z,29.20
2019-01-19T23:05:29.860Z,28.10
2019-01-19T23:08:01.589Z,31.57
2019-01-19T23:10:33.411Z,24.93
2019-01-19T23:13:05.248Z,33.07
2019-01-19T23:15:36.980Z,29.07
2019-01-19T23:18:09.418Z,25.57
2019-01-19T23:20:41.394Z,26.70
2019-01-19T23:23:13.134Z,30.57
2019-01-19T23:25:45.272Z,32.73
2019-01-19T23:28:17.004Z,30.88
2019-01-19T23:30:48.813Z,28.00
2019-01-19T23:33:20.542Z,26.67
2019-01-19T23:35:52.261Z,28.00
2019-01-19T23:38:24.079Z,28.87
2019-01-19T23:40:55.873Z,28.63
2019-01-19T23:43:27.678Z,25.95
2019-01-19T23:45:59.551Z,29.20
2019-01-19T23:48:31.533Z,25.80
2019-01-19T23:51:03.692Z,28.83
2019-01-19T23:53:35.436Z,31.50
2019-01-19T23:56:07.245Z,25.73
2019-01-19T23:58:38.975Z,29.47
